PAMO

Details ICAO PAMO (MOU)
Name Mountain Village
Region USA (Alaska)
Timezone America/Nome (UTC-9.0)
Plans Departing 2
Arriving 1
Stats Elevation 337 ft / 103 m (AMSL)
Location 62.094793° -163.682844°
Runways 1
Magnetic Variation 10.738° E
Sunrise 2017-12-17 20:18:20 UTC / 2017-12-17 11:18:20 Local
Sunset 2017-12-18 01:26:32 UTC / 2017-12-17 16:26:32 Local
Advertisement - Login to hide

Runways

ID Width Length Bearing (true) Bearing (mag) Surface Threshold Offset Overrun Length
02 75 ft / 23 m 3,492 ft / 1,064 m 32.50° 21.76° Gravel 0 ft / 0 m 0 ft / 0 m
20 75 ft / 23 m 3,492 ft / 1,064 m 212.51° 201.77° Gravel 0 ft / 0 m 0 ft / 0 m

Map

Weather


0- 5 10 15 20 25 30 35+ Temperature / ° C

Clouds and Precipitation
Forecast for 2017-12-17 18:00 UTC. Updated an hour ago

Ground ~20,000 ft ~40,000 ft Winds

METAR

PAMO 171601Z AUTO 30010KT 2SM -SN BR BKN004 BKN014 OVC027 M03/M03 A2957 RMK AO2 P0000 FZRANO

TAF

Not found

Frequencies

Recorded 118.35 MHz ASOS
Unicom 122.90 MHz CTAF
Warning: Do not use this data for real-world aviation or navigation. No guarantee of current accuracy is given.